East Derry, New Hampshire
Current Conditions -  °F | °C
As of 12:53 AM on Wednesday 22 Oct 2014 (Local Time) from KMHT Reporting Station
Overcast Overcast  
Wind Chill: 50°   Ceiling: 1000
Heat Index: 50°   Visibility: 10mi
Dew Point: 46°   Wind: 10mph
Humidity: 86%   Direction: 350°N
Pressure: 30.01"   Gusts: NA
Location:  42.89°N, 71.29°W
Report Text: KMHT 220453Z 35009KT 10SM OVC010 10/08 A3001 RMK AO2 SLP174 T01000078 401500078
Loading
Personal Weather Stations






























Interactive Weather Map
Tropical Storm Tracking
New forecast layout! Learn more

10-Day Weather Forecast

Advertisements
Track Severe Weather on mobile